Time;durP1;ratioP1;P1;durP2;ratioP2;P2;SDS_P1;SDS_P2;PMS_P1;PMS_P2;Temp;Humidity;BMP_temperature;BMP_pressure;BME280_temperature;BME280_humidity;BME280_pressure;Samples;Min_cycle;Max_cycle;Signal;HPM_P1;HPM_P2
2023/09/19 00:00:49;;;;;;;29.10;8.13;;;;;;;25.47;59.85;100807.59;5014385;28;20055;-78
2023/09/19 00:03:16;;;;;;;19.10;8.07;;;;;;;25.60;60.40;100840.03;4989348;28;20699;-79
2023/09/19 00:05:44;;;;;;;35.08;7.63;;;;;;;25.46;58.50;100823.06;5010747;28;20059;-79
2023/09/19 00:08:15;;;;;;;42.00;8.63;;;;;;;25.48;57.31;100831.81;5005146;28;20492;-81
2023/09/19 00:10:48;;;;;;;23.55;7.68;;;;;;;25.47;57.28;100845.66;5005662;28;20095;-81
2023/09/19 00:13:21;;;;;;;38.28;8.18;;;;;;;25.40;58.04;100844.91;5005859;28;20081;-80
2023/09/19 00:15:50;;;;;;;31.23;7.72;;;;;;;25.32;58.08;100832.47;4987153;28;20061;-81
2023/09/19 00:18:24;;;;;;;17.45;6.90;;;;;;;25.40;61.14;100824.00;4980536;28;20801;-80
2023/09/19 00:20:52;;;;;;;25.80;7.63;;;;;;;25.38;57.81;100821.50;4982029;28;20084;-79
2023/09/19 00:23:25;;;;;;;28.42;6.93;;;;;;;25.31;58.01;100804.44;4991125;28;20055;-79
2023/09/19 00:26:00;;;;;;;29.48;8.43;;;;;;;25.30;57.56;100815.56;5013544;28;20399;-80
2023/09/19 00:28:28;;;;;;;19.63;6.50;;;;;;;25.24;59.64;100822.72;5012259;28;20060;-79
2023/09/19 00:30:55;;;;;;;20.73;7.70;;;;;;;25.20;61.68;100799.81;5016394;28;20044;-80
2023/09/19 00:33:24;;;;;;;30.30;7.28;;;;;;;24.95;58.51;100768.09;5001993;28;20869;-79
2023/09/19 00:35:52;;;;;;;29.75;7.50;;;;;;;25.21;58.72;100814.22;5012350;28;20049;-78
2023/09/19 00:38:26;;;;;;;32.72;8.13;;;;;;;25.15;58.47;100815.94;5006462;28;20154;-78
2023/09/19 00:40:59;;;;;;;32.50;7.55;;;;;;;25.10;58.54;100823.94;5002442;28;20053;-81
2023/09/19 00:43:27;;;;;;;31.90;7.43;;;;;;;24.97;58.74;100813.22;4974560;28;20045;-80
2023/09/19 00:45:56;;;;;;;26.17;7.60;;;;;;;24.91;58.91;100813.06;4984085;28;20050;-79
2023/09/19 00:48:24;;;;;;;16.27;7.00;;;;;;;24.68;61.33;100777.59;4982455;28;20060;-77
2023/09/19 00:50:53;;;;;;;20.20;6.85;;;;;;;24.88;62.28;100791.78;4999587;28;20053;-77
2023/09/19 00:53:23;;;;;;;31.00;8.52;;;;;;;24.93;60.69;100794.66;4995555;28;20055;-79
2023/09/19 00:55:56;;;;;;;25.15;8.52;;;;;;;24.78;59.63;100777.06;5035262;28;20198;-77
2023/09/19 00:58:23;;;;;;;32.78;8.43;;;;;;;24.89;59.39;100817.88;5034162;28;20064;-79
2023/09/19 01:00:53;;;;;;;13.68;6.95;;;;;;;24.89;61.60;100820.59;5020985;28;20083;-77
2023/09/19 01:03:36;;;;;;;23.27;7.43;;;;;;;24.69;60.46;100807.25;4973212;28;20063;-77
2023/09/19 01:06:08;;;;;;;32.42;8.73;;;;;;;24.32;59.76;100749.31;5000108;28;20088;-78
2023/09/19 01:08:36;;;;;;;31.90;7.65;;;;;;;24.52;60.35;100784.47;5000409;28;20662;-77
2023/09/19 01:11:20;;;;;;;33.30;7.25;;;;;;;24.78;59.84;100837.63;5010861;28;20131;-77
2023/09/19 01:14:01;;;;;;;31.63;7.53;;;;;;;24.82;59.70;100838.84;4972178;28;20102;-79
2023/09/19 01:16:39;;;;;;;15.95;6.68;;;;;;;24.56;60.49;100803.81;5013873;28;20183;-78
2023/09/19 01:19:26;;;;;;;26.25;7.65;;;;;;;24.89;62.18;100845.03;5011913;28;20934;-77
2023/09/19 01:22:06;;;;;;;31.27;8.02;;;;;;;24.75;59.58;100829.94;5017405;28;20110;-78
2023/09/19 01:24:56;;;;;;;33.90;7.78;;;;;;;24.50;59.07;100798.25;5010914;28;20056;-77
2023/09/19 01:27:38;;;;;;;22.98;7.03;;;;;;;24.65;59.00;100832.34;5011677;28;20056;-77
2023/09/19 01:30:22;;;;;;;20.60;8.20;;;;;;;24.75;59.05;100851.66;5030974;28;20122;-78
2023/09/19 01:32:57;;;;;;;33.25;7.22;;;;;;;24.44;58.81;100812.69;5010683;28;20077;-80
2023/09/19 01:35:24;;;;;;;20.70;7.18;;;;;;;24.60;58.91;100833.00;5001777;28;20324;-78
2023/09/19 01:37:53;;;;;;;29.48;7.15;;;;;;;24.70;59.25;100846.88;5000739;28;20134;-78
2023/09/19 01:40:22;;;;;;;29.52;8.00;;;;;;;24.61;58.95;100828.41;4992971;28;20365;-79
2023/09/19 01:42:55;;;;;;;22.10;7.43;;;;;;;24.60;59.39;100834.91;5007767;28;20052;-77
2023/09/19 01:45:48;;;;;;;30.55;7.78;;;;;;;24.30;58.77;100792.97;5015388;28;20335;-78
2023/09/19 01:48:40;;;;;;;32.50;9.75;;;;;;;24.09;59.96;100769.78;5015093;28;20049;-80
2023/09/19 01:51:12;;;;;;;25.83;7.18;;;;;;;24.60;60.55;100834.91;4984862;28;20053;-79
2023/09/19 01:53:51;;;;;;;33.22;8.15;;;;;;;24.56;59.81;100839.09;5024831;28;20061;-78
2023/09/19 01:56:29;;;;;;;26.10;7.47;;;;;;;24.56;59.75;100845.34;5038741;28;20102;-77
2023/09/19 01:59:03;;;;;;;29.98;7.88;;;;;;;24.60;61.33;100841.16;5038145;28;20369;-80
2023/09/19 02:01:31;;;;;;;37.50;8.60;;;;;;;24.62;60.25;100843.66;5022275;28;20043;-78
2023/09/19 02:03:59;;;;;;;37.83;7.88;;;;;;;24.22;60.26;100787.81;5010757;28;20275;-78
2023/09/19 02:06:26;;;;;;;22.60;7.57;;;;;;;24.27;60.40;100819.69;5010180;28;20111;-80
2023/09/19 02:08:54;;;;;;;27.30;8.07;;;;;;;24.35;60.22;100849.28;5019943;28;20056;-77
2023/09/19 02:11:26;;;;;;;30.33;8.13;;;;;;;24.19;60.46;100817.28;5030311;28;20076;-79
2023/09/19 02:13:54;;;;;;;34.63;8.65;;;;;;;24.28;61.28;100832.22;5020691;28;20435;-78
2023/09/19 02:16:21;;;;;;;25.35;8.65;;;;;;;24.23;60.59;100829.34;5021393;28;20072;-77
2023/09/19 02:18:50;;;;;;;26.85;8.75;;;;;;;23.49;60.34;100715.16;5021746;28;20249;-76
2023/09/19 02:21:18;;;;;;;25.25;7.85;;;;;;;24.17;63.20;100808.53;5020545;28;20210;-77
2023/09/19 02:23:47;;;;;;;35.75;7.57;;;;;;;24.53;62.84;100840.38;5016824;28;20128;-76
2023/09/19 02:26:16;;;;;;;26.70;8.25;;;;;;;24.47;60.00;100836.69;5020394;28;20724;-77
2023/09/19 02:28:42;;;;;;;20.50;7.22;;;;;;;24.36;60.97;100821.09;5020415;28;20068;-78
2023/09/19 02:31:17;;;;;;;27.42;8.00;;;;;;;24.51;61.82;100842.47;5023689;28;20135;-80
2023/09/19 02:33:44;;;;;;;30.40;6.90;;;;;;;24.46;62.48;100813.28;5010368;28;20188;-79
2023/09/19 02:36:16;;;;;;;30.27;8.13;;;;;;;24.57;63.08;100819.06;5021347;28;20510;-78
2023/09/19 02:38:44;;;;;;;26.60;6.57;;;;;;;24.75;63.38;100840.78;5024729;28;20053;-77
2023/09/19 02:41:11;;;;;;;20.63;7.03;;;;;;;24.53;61.98;100803.22;5014436;28;20575;-76
2023/09/19 02:43:38;;;;;;;29.50;8.27;;;;;;;24.66;60.21;100839.41;5023959;28;20056;-78
2023/09/19 02:46:06;;;;;;;28.60;7.72;;;;;;;24.10;59.84;100760.59;5013219;28;20495;-80
2023/09/19 02:48:35;;;;;;;35.30;8.70;;;;;;;24.33;59.89;100823.44;5019470;28;20186;-80
2023/09/19 02:51:05;;;;;;;26.80;7.03;;;;;;;24.21;60.31;100821.44;5024358;28;20410;-77
2023/09/19 02:53:32;;;;;;;18.52;6.78;;;;;;;24.14;63.28;100795.41;5023886;28;20045;-77
2023/09/19 02:55:59;;;;;;;22.23;7.47;;;;;;;24.43;63.98;100830.00;5024816;28;20060;-80
2023/09/19 02:58:30;;;;;;;37.67;7.30;;;;;;;24.36;60.91;100818.38;5022086;28;20379;-79
2023/09/19 03:00:57;;;;;;;25.33;7.63;;;;;;;24.19;60.54;100814.56;5015981;28;20179;-79
2023/09/19 03:03:24;;;;;;;25.38;7.53;;;;;;;23.88;60.58;100786.41;5023506;28;20045;-79
2023/09/19 03:05:53;;;;;;;25.15;8.13;;;;;;;24.07;60.81;100828.00;5032384;28;20056;-78
2023/09/19 03:08:21;;;;;;;27.33;7.65;;;;;;;23.98;60.96;100824.75;5016843;28;20432;-78
2023/09/19 03:10:49;;;;;;;20.30;8.75;;;;;;;23.86;61.28;100818.34;5017418;28;20483;-80
2023/09/19 03:13:16;;;;;;;23.10;6.78;;;;;;;23.87;61.08;100828.97;5009378;28;20111;-77
2023/09/19 03:15:50;;;;;;;27.70;7.63;;;;;;;23.82;60.87;100827.97;5002984;28;20383;-79
2023/09/19 03:18:20;;;;;;;24.58;7.57;;;;;;;23.63;61.04;100814.28;5003131;28;20491;-79
2023/09/19 03:20:58;;;;;;;25.52;8.15;;;;;;;23.43;61.78;100798.16;5002627;28;20431;-79
2023/09/19 03:23:26;;;;;;;22.70;7.80;;;;;;;23.40;61.80;100803.16;5002873;28;20046;-78
2023/09/19 03:25:58;;;;;;;25.42;8.43;;;;;;;23.51;62.13;100824.16;4999052;28;20156;-79
2023/09/19 03:28:25;;;;;;;19.20;6.90;;;;;;;23.17;63.94;100760.34;5004392;28;20580;-78
2023/09/19 03:31:00;;;;;;;25.02;7.43;;;;;;;23.61;62.73;100810.97;4998491;28;20060;-80
2023/09/19 03:33:27;;;;;;;24.10;7.25;;;;;;;23.24;62.33;100756.56;5004765;28;20045;-78
2023/09/19 03:35:54;;;;;;;29.00;8.30;;;;;;;23.62;62.42;100831.59;5017033;28;20099;-79
2023/09/19 03:38:29;;;;;;;31.70;8.43;;;;;;;23.59;62.14;100831.19;5025936;28;20044;-79
2023/09/19 03:40:56;;;;;;;33.13;9.02;;;;;;;23.61;61.85;100827.22;5030105;28;20065;-78
2023/09/19 03:43:24;;;;;;;32.03;7.47;;;;;;;23.31;62.83;100761.13;5018266;28;20049;-81
2023/09/19 03:45:51;;;;;;;32.75;8.35;;;;;;;23.85;64.91;100816.69;5025346;28;20389;-79
2023/09/19 03:48:19;;;;;;;25.00;7.60;;;;;;;23.99;64.75;100818.25;5005188;28;20248;-80
2023/09/19 03:50:47;;;;;;;17.42;6.63;;;;;;;23.98;65.08;100811.19;5009048;28;20429;-80
2023/09/19 03:53:14;;;;;;;27.42;7.47;;;;;;;23.98;61.97;100816.63;5015904;28;20509;-76
2023/09/19 03:55:46;;;;;;;28.60;7.90;;;;;;;23.88;61.35;100802.69;5012676;28;20094;-80
2023/09/19 03:58:13;;;;;;;28.63;7.93;;;;;;;23.71;61.54;100809.66;5017754;28;20041;-78
2023/09/19 04:00:44;;;;;;;31.42;8.10;;;;;;;23.66;61.86;100823.84;5016695;28;20508;-80
2023/09/19 04:03:19;;;;;;;36.10;9.30;;;;;;;22.98;62.16;100738.56;5011832;28;20457;-78
2023/09/19 04:05:47;;;;;;;33.58;8.20;;;;;;;23.50;62.62;100841.47;5000866;28;20572;-80
2023/09/19 04:08:14;;;;;;;31.20;7.53;;;;;;;23.47;63.22;100831.03;4997625;28;20053;-77
2023/09/19 04:10:43;;;;;;;20.80;7.82;;;;;;;23.62;64.29;100839.75;4995935;28;20278;-80
2023/09/19 04:13:15;;;;;;;24.60;8.43;;;;;;;23.62;62.96;100828.91;5012778;28;20138;-80
2023/09/19 04:15:42;;;;;;;23.88;8.05;;;;;;;23.54;62.56;100821.00;5023148;28;20548;-78
2023/09/19 04:18:09;;;;;;;30.13;8.93;;;;;;;23.46;62.48;100834.81;5022661;28;20045;-78
2023/09/19 04:20:36;;;;;;;20.45;6.97;;;;;;;23.41;63.55;100829.22;5022526;28;20390;-80
2023/09/19 04:23:05;;;;;;;36.80;9.05;;;;;;;23.46;63.45;100829.38;5021711;28;20132;-77
2023/09/19 04:25:32;;;;;;;22.83;7.65;;;;;;;23.45;62.87;100844.00;5022791;28;20717;-77
2023/09/19 04:28:00;;;;;;;30.10;9.10;;;;;;;23.19;62.97;100818.66;5016129;28;20366;-80
2023/09/19 04:30:26;;;;;;;29.42;7.90;;;;;;;23.10;63.67;100825.38;5020738;28;20068;-78
2023/09/19 04:32:53;;;;;;;24.48;8.48;;;;;;;23.45;66.13;100844.00;5016173;28;20049;-80
2023/09/19 04:35:20;;;;;;;21.05;8.27;;;;;;;23.59;63.93;100848.31;5014495;28;20040;-80
2023/09/19 04:37:48;;;;;;;28.60;8.85;;;;;;;23.30;63.30;100822.56;5013458;28;20565;-81
2023/09/19 04:40:17;;;;;;;25.15;8.95;;;;;;;23.30;63.57;100827.16;5017636;28;20056;-79
2023/09/19 04:42:45;;;;;;;27.77;9.55;;;;;;;23.10;63.47;100811.81;5025160;28;20063;-78
2023/09/19 04:45:20;;;;;;;31.63;9.70;;;;;;;23.23;63.42;100829.94;5017000;28;20057;-81
2023/09/19 04:47:56;;;;;;;25.10;8.35;;;;;;;23.12;64.67;100790.78;5028767;28;20092;-81
2023/09/19 04:50:27;;;;;;;22.70;7.72;;;;;;;23.81;65.91;100873.22;5026210;28;20049;-80
2023/09/19 04:52:55;;;;;;;24.05;8.10;;;;;;;23.85;64.91;100869.03;5019873;28;20055;-79
2023/09/19 04:55:24;;;;;;;25.17;8.93;;;;;;;23.92;64.30;100871.69;5013129;28;20510;-80
2023/09/19 04:57:55;;;;;;;31.25;10.50;;;;;;;23.71;63.05;100844.88;5019248;28;20053;-77
2023/09/19 05:00:24;;;;;;;37.67;9.87;;;;;;;23.39;62.90;100823.16;5020917;28;20158;-78
2023/09/19 05:02:52;;;;;;;33.17;11.60;;;;;;;23.59;63.07;100872.69;5019521;28;20052;-77
2023/09/19 05:05:19;;;;;;;35.15;9.63;;;;;;;23.50;63.23;100876.69;5019420;28;20382;-78
2023/09/19 05:07:53;;;;;;;26.33;7.32;;;;;;;23.45;64.74;100860.25;5022472;28;20045;-79
2023/09/19 05:10:20;;;;;;;28.23;9.60;;;;;;;23.87;65.75;100869.63;5025337;28;20202;-79
2023/09/19 05:12:48;;;;;;;30.02;9.65;;;;;;;23.83;63.32;100871.13;5022702;28;20053;-79
2023/09/19 05:15:16;;;;;;;26.55;9.45;;;;;;;23.74;62.92;100874.28;5017174;28;20045;-77
2023/09/19 05:17:57;;;;;;;28.40;9.98;;;;;;;23.61;62.76;100880.59;5020867;28;20385;-77
2023/09/19 05:20:34;;;;;;;29.63;9.50;;;;;;;23.53;63.14;100868.13;5017351;28;20208;-75
2023/09/19 05:23:08;;;;;;;30.70;10.68;;;;;;;23.43;63.68;100873.19;5013383;28;20122;-80
2023/09/19 05:25:40;;;;;;;32.08;9.15;;;;;;;23.35;63.68;100876.09;5017557;28;20056;-80
2023/09/19 05:28:07;;;;;;;;;;;;;;;23.27;64.14;100881.78;5016320;28;20491;-79
2023/09/19 05:30:38;;;;;;;39.22;10.93;;;;;;;23.29;64.18;100885.09;5019847;28;20563;-77
2023/09/19 05:33:13;;;;;;;28.50;9.65;;;;;;;22.95;64.10;100828.31;5037309;28;20057;-80
2023/09/19 05:35:41;;;;;;;48.83;10.45;;;;;;;23.13;64.27;100862.88;5013496;28;20238;-80
2023/09/19 05:38:09;;;;;;;26.13;9.50;;;;;;;23.14;64.61;100866.41;5019035;28;20056;-77
2023/09/19 05:40:36;;;;;;;37.53;10.52;;;;;;;23.20;65.06;100882.59;5018563;28;20475;-78
2023/09/19 05:43:05;;;;;;;26.45;10.23;;;;;;;23.19;64.86;100880.97;5024702;28;20336;-79
2023/09/19 05:45:32;;;;;;;39.10;11.05;;;;;;;23.06;64.89;100867.47;5021731;28;20128;-77
2023/09/19 05:48:15;;;;;;;35.28;11.18;;;;;;;23.09;64.89;100872.44;5023953;28;20049;-77
2023/09/19 05:50:50;;;;;;;30.70;10.77;;;;;;;23.15;64.95;100893.25;5021326;28;20750;-79
2023/09/19 05:53:17;;;;;;;31.38;9.80;;;;;;;23.20;65.89;100906.97;5024073;28;20077;-78
2023/09/19 05:55:47;;;;;;;34.55;10.02;;;;;;;23.58;66.44;100898.13;5033021;28;20368;-77
2023/09/19 05:58:14;;;;;;;34.33;9.88;;;;;;;23.53;64.97;100894.41;5039629;28;20045;-79
2023/09/19 06:00:42;;;;;;;53.42;11.35;;;;;;;23.50;64.43;100900.22;5029226;28;20073;-77
2023/09/19 06:03:09;;;;;;;41.63;11.15;;;;;;;23.54;64.31;100907.72;5020417;28;20503;-78
2023/09/19 06:05:41;;;;;;;33.40;10.35;;;;;;;23.55;64.77;100906.69;5019696;28;20062;-78
2023/09/19 06:08:10;;;;;;;26.42;10.43;;;;;;;23.59;64.21;100910.63;5034137;28;20080;-81
2023/09/19 06:10:37;;;;;;;38.53;10.38;;;;;;;23.53;64.67;100888.97;5038706;28;20139;-79
2023/09/19 06:13:05;;;;;;;36.85;10.38;;;;;;;23.52;64.61;100890.84;5034325;28;20470;-80
2023/09/19 06:15:33;;;;;;;35.40;10.07;;;;;;;23.84;65.57;100918.06;5024814;28;20138;-77
2023/09/19 06:18:02;;;;;;;38.63;9.90;;;;;;;23.76;64.39;100883.88;5028484;28;20053;-79
2023/09/19 06:20:33;;;;;;;47.72;11.80;;;;;;;23.74;64.36;100887.84;5037119;28;20326;-79
2023/09/19 06:23:03;;;;;;;38.65;10.55;;;;;;;23.91;64.26;100927.00;5014031;28;20131;-78
2023/09/19 06:25:29;;;;;;;25.17;9.55;;;;;;;23.92;64.25;100920.50;5027327;28;20465;-79
2023/09/19 06:27:57;;;;;;;49.05;11.18;;;;;;;23.93;63.56;100927.56;5027240;28;20141;-77
2023/09/19 06:30:24;;;;;;;47.33;11.50;;;;;;;23.85;64.03;100922.41;5021543;28;20051;-79
2023/09/19 06:32:58;;;;;;;45.63;10.95;;;;;;;23.86;64.21;100924.06;5044232;28;20148;-78
2023/09/19 06:35:27;;;;;;;51.13;10.65;;;;;;;23.83;64.02;100925.34;5028919;28;20051;-79
2023/09/19 06:37:57;;;;;;;37.28;11.30;;;;;;;23.91;64.57;100929.69;5027095;28;20099;-80
2023/09/19 06:40:31;;;;;;;33.67;9.60;;;;;;;23.95;64.54;100947.16;5019692;28;20057;-80
2023/09/19 06:42:58;;;;;;;43.33;11.05;;;;;;;23.74;64.35;100904.97;5031679;28;20490;-78
2023/09/19 06:45:27;;;;;;;39.65;10.15;;;;;;;24.06;64.92;100949.22;5048526;28;20544;-78
2023/09/19 06:48:00;;;;;;;34.42;10.05;;;;;;;23.96;65.13;100934.44;5045120;28;20486;-78
2023/09/19 06:50:28;;;;;;;32.10;11.45;;;;;;;23.96;64.80;100932.59;5023102;28;20124;-79
2023/09/19 06:52:57;;;;;;;39.78;10.98;;;;;;;24.09;65.01;100945.22;5022051;28;20107;-78
2023/09/19 06:55:27;;;;;;;31.60;10.65;;;;;;;24.18;65.21;100952.06;5044668;28;20131;-78
2023/09/19 06:57:58;;;;;;;27.38;8.57;;;;;;;24.33;64.71;100957.19;5047787;28;20136;-77
2023/09/19 07:00:25;;;;;;;19.10;8.52;;;;;;;24.24;63.92;100931.38;5036515;28;20049;-79
2023/09/19 07:03:07;;;;;;;30.95;9.23;;;;;;;24.47;62.87;100950.66;5026178;28;20467;-77
2023/09/19 07:05:49;;;;;;;19.65;6.95;;;;;;;24.73;63.96;100965.91;5018061;28;20049;-78
2023/09/19 07:08:18;;;;;;;39.60;9.60;;;;;;;24.65;61.29;100951.78;5043048;28;20047;-78
2023/09/19 07:10:48;;;;;;;31.60;8.52;;;;;;;24.77;60.29;100955.44;5049793;28;20076;-78
2023/09/19 07:13:17;;;;;;;30.90;8.20;;;;;;;24.59;60.35;100920.94;5031471;28;20447;-78
2023/09/19 07:15:47;;;;;;;46.25;11.32;;;;;;;24.93;60.41;100979.31;5008439;28;20409;-78
2023/09/19 07:18:16;;;;;;;30.73;8.37;;;;;;;24.62;59.86;100916.94;5031459;28;20048;-78
2023/09/19 07:20:48;;;;;;;28.08;7.72;;;;;;;24.76;58.69;100915.78;5048929;28;20116;-78
2023/09/19 07:23:22;;;;;;;24.30;7.50;;;;;;;25.17;58.18;100976.81;5045122;28;20087;-77
2023/09/19 07:25:49;;;;;;;21.65;7.75;;;;;;;24.95;57.82;100947.34;5026440;28;20045;-77
2023/09/19 07:28:17;;;;;;;22.42;7.55;;;;;;;25.12;57.63;100963.91;5028540;28;20134;-77
2023/09/19 07:30:43;;;;;;;17.67;7.63;;;;;;;25.25;58.24;100957.53;5027958;28;20068;-77
2023/09/19 07:33:13;;;;;;;24.75;7.50;;;;;;;25.32;57.67;100971.88;5039787;28;20049;-77
2023/09/19 07:35:40;;;;;;;31.13;7.43;;;;;;;25.40;57.27;100978.06;5010338;28;20061;-81
2023/09/19 07:38:11;;;;;;;24.15;7.88;;;;;;;25.38;58.13;100973.66;5024405;28;20130;-80
2023/09/19 07:40:38;;;;;;;30.35;7.80;;;;;;;25.30;57.97;100951.41;5026928;28;20056;-81
2023/09/19 07:43:06;;;;;;;28.48;8.32;;;;;;;25.48;58.27;100983.19;5035351;28;20064;-78
2023/09/19 07:45:34;;;;;;;30.08;7.25;;;;;;;25.37;59.11;100955.72;5047354;28;20052;-78
2023/09/19 07:48:04;;;;;;;28.27;8.25;;;;;;;25.49;56.63;100963.13;5045815;28;20509;-78
2023/09/19 07:50:36;;;;;;;24.73;8.00;;;;;;;25.58;57.54;100976.19;5046404;28;20131;-77
2023/09/19 07:53:04;;;;;;;31.38;8.20;;;;;;;25.42;56.54;100954.22;5033871;28;20467;-79
2023/09/19 07:55:33;;;;;;;26.70;7.65;;;;;;;25.57;56.43;100976.41;5038819;28;20045;-79
2023/09/19 07:58:08;;;;;;;24.33;7.38;;;;;;;25.74;57.19;100999.19;5047123;28;20068;-79
2023/09/19 08:00:34;;;;;;;30.52;7.72;;;;;;;25.81;56.09;101004.56;5040103;28;20476;-77
2023/09/19 08:03:03;;;;;;;18.63;7.38;;;;;;;25.77;56.42;100987.03;5037675;28;20132;-78
2023/09/19 08:05:43;;;;;;;18.02;7.03;;;;;;;25.83;57.02;101007.03;5025042;28;20053;-78
2023/09/19 08:08:14;;;;;;;32.78;8.05;;;;;;;25.75;55.23;100979.13;5041999;28;20063;-75
2023/09/19 08:10:45;;;;;;;28.17;8.50;;;;;;;25.71;55.53;100986.06;5049268;28;20126;-77
2023/09/19 08:13:14;;;;;;;24.50;7.15;;;;;;;25.69;56.83;100999.06;5038964;28;20201;-80
2023/09/19 08:15:44;;;;;;;25.27;6.65;;;;;;;25.86;55.45;100998.47;5026879;28;20495;-78
2023/09/19 08:18:15;;;;;;;26.73;7.13;;;;;;;25.96;55.22;100999.59;5020863;28;20504;-79
2023/09/19 08:20:46;;;;;;;29.98;7.85;;;;;;;25.99;55.10;100995.56;5047019;28;20049;-79
2023/09/19 08:23:13;;;;;;;25.90;7.78;;;;;;;25.99;54.91;100996.41;5044556;28;20084;-77
2023/09/19 08:25:40;;;;;;;31.88;7.25;;;;;;;25.86;55.10;100974.81;5049407;28;20051;-79
2023/09/19 08:28:11;;;;;;;24.73;6.82;;;;;;;25.86;54.42;100969.38;5044354;28;20148;-79
2023/09/19 08:30:40;;;;;;;35.78;8.38;;;;;;;25.95;55.83;100983.50;5040033;28;20044;-79
2023/09/19 08:33:07;;;;;;;34.83;9.15;;;;;;;25.92;56.92;100984.78;5042203;28;20467;-78
2023/09/19 08:35:35;;;;;;;35.33;9.07;;;;;;;25.91;56.58;100983.13;5037925;28;20076;-78
2023/09/19 08:38:06;;;;;;;30.85;8.73;;;;;;;25.83;57.10;100956.22;5032435;28;20152;-80
2023/09/19 08:40:39;;;;;;;33.83;8.60;;;;;;;26.14;56.58;100997.88;5027413;28;20398;-79
2023/09/19 08:43:08;;;;;;;26.05;8.18;;;;;;;25.42;55.53;100859.09;5036256;28;20119;-80
2023/09/19 08:45:36;;;;;;;33.88;9.35;;;;;;;26.07;56.48;100981.69;5047002;28;20560;-75
2023/09/19 08:48:05;;;;;;;29.83;8.57;;;;;;;25.90;56.35;100946.13;5052825;28;20084;-76
2023/09/19 08:50:43;;;;;;;50.80;10.13;;;;;;;26.08;56.72;100972.44;5043270;28;20328;-79
2023/09/19 08:53:18;;;;;;;29.92;9.02;;;;;;;26.11;56.46;100985.56;5030611;28;20131;-79
2023/09/19 08:55:49;;;;;;;25.80;7.15;;;;;;;26.14;57.87;100987.88;5030648;28;20044;-78
2023/09/19 08:58:19;;;;;;;;;;;;;;;26.08;56.60;100986.03;5042003;28;20041;-79
2023/09/19 09:00:49;;;;;;;24.63;8.02;;;;;;;26.18;57.64;100989.03;5046206;28;20032;-78
2023/09/19 09:03:20;;;;;;;21.92;8.18;;;;;;;26.22;57.14;100979.38;5034971;28;20132;-77
2023/09/19 09:05:50;;;;;;;32.35;8.88;;;;;;;26.46;55.21;100995.78;5046018;28;20509;-80
2023/09/19 09:08:20;;;;;;;29.15;8.80;;;;;;;26.27;56.13;100975.13;5046991;28;20460;-78
2023/09/19 09:10:47;;;;;;;25.60;8.25;;;;;;;26.41;57.02;100990.22;5049417;28;20140;-79
2023/09/19 09:13:17;;;;;;;27.85;9.50;;;;;;;26.58;56.39;100988.50;5027737;28;20056;-79
2023/09/19 09:15:47;;;;;;;31.27;8.88;;;;;;;26.60;56.84;100986.38;5030227;28;20093;-78
2023/09/19 09:18:13;;;;;;;20.30;6.75;;;;;;;26.72;56.66;100996.44;5030741;28;20045;-78
2023/09/19 09:20:41;;;;;;;24.17;8.18;;;;;;;26.78;56.61;100990.09;5046412;28;20048;-78
2023/09/19 09:23:08;;;;;;;19.15;8.25;;;;;;;26.61;56.80;100949.09;5045800;28;20145;-76
2023/09/19 09:25:56;;;;;;;26.98;8.45;;;;;;;27.02;56.17;100989.03;5048955;28;20044;-80
2023/09/19 09:28:26;;;;;;;41.53;11.13;;;;;;;27.15;55.84;100987.13;5048264;28;20048;-78
2023/09/19 09:30:59;;;;;;;34.88;11.13;;;;;;;27.32;54.56;100977.19;5052291;28;20044;-78
2023/09/19 09:33:28;;;;;;;25.23;9.13;;;;;;;27.05;54.87;100934.06;5040509;28;20079;-80
2023/09/19 09:35:59;;;;;;;33.47;8.23;;;;;;;26.85;55.78;100892.75;5046086;28;20349;-77
2023/09/19 09:38:28;;;;;;;;;;;;;;;27.41;55.65;100986.69;5037687;28;20069;-77
2023/09/19 09:41:35;;;;;;;29.63;10.75;;;;;;;27.38;54.52;100959.06;5030883;28;20038;-76
2023/09/19 09:43:49;;;;;;;41.63;7.93;;;;;;;27.66;55.39;100982.84;5043817;28;20441;-77
2023/09/19 09:49:16;;;;;;;31.45;8.73;;;;;;;27.69;54.72;100985.06;5030806;28;20057;-76
2023/09/19 09:51:57;;;;;;;19.80;7.90;;;;;;;27.76;54.94;100983.03;5024944;28;20053;-77
2023/09/19 09:54:28;;;;;;;32.88;8.98;;;;;;;27.83;54.76;100988.41;5011786;28;20057;-80
2023/09/19 09:57:02;;;;;;;19.73;7.95;;;;;;;27.80;54.86;100976.03;5047076;28;20394;-78
2023/09/19 09:59:47;;;;;;;23.77;8.00;;;;;;;27.94;54.88;100995.72;5048841;28;20134;-77
2023/09/19 10:02:23;;;;;;;28.05;8.40;;;;;;;28.03;54.68;100983.34;5042595;28;20106;-77
2023/09/19 10:05:20;;;;;;;19.90;8.05;;;;;;;27.97;54.04;100972.59;5032458;28;20110;-77
2023/09/19 10:07:51;;;;;;;23.63;8.90;;;;;;;28.05;54.80;100985.84;5049407;28;20052;-77
2023/09/19 10:10:45;;;;;;;22.52;7.10;;;;;;;27.82;54.48;100933.03;5045621;28;20059;-77
2023/09/19 10:13:15;;;;;;;14.50;7.03;;;;;;;27.88;55.10;100953.84;5035198;28;20049;-78
2023/09/19 10:15:50;;;;;;;17.70;7.68;;;;;;;28.11;54.39;100963.03;5030202;28;20295;-77
2023/09/19 10:18:20;;;;;;;26.88;9.80;;;;;;;28.15;54.05;100961.47;5027654;28;20049;-79
2023/09/19 10:20:50;;;;;;;30.05;9.60;;;;;;;28.15;53.80;100964.19;5039115;28;20133;-78
2023/09/19 10:23:23;;;;;;;18.58;9.27;;;;;;;28.38;52.68;100974.16;5045499;28;20498;-77
2023/09/19 10:25:52;;;;;;;22.02;8.75;;;;;;;28.65;51.65;100957.19;5044959;28;20056;-78
2023/09/19 10:28:23;;;;;;;35.90;10.10;;;;;;;28.85;52.00;100975.81;5047249;28;20052;-78
2023/09/19 10:30:57;;;;;;;26.33;8.60;;;;;;;28.71;51.84;100951.53;5050739;28;20413;-79
2023/09/19 10:33:32;;;;;;;25.25;8.93;;;;;;;28.90;51.72;100981.34;5043065;28;20053;-78
2023/09/19 10:36:00;;;;;;;15.07;7.25;;;;;;;28.39;52.10;100890.34;5031585;28;20370;-78
2023/09/19 10:38:28;;;;;;;16.08;7.90;;;;;;;28.74;51.80;100945.59;5003206;28;20366;-77
2023/09/19 10:41:00;;;;;;;18.58;8.20;;;;;;;28.94;51.91;100974.31;5009065;28;20050;-79
2023/09/19 10:43:32;;;;;;;22.90;7.78;;;;;;;29.02;52.48;100979.34;5034140;28;20056;-80
2023/09/19 10:46:12;;;;;;;33.10;10.63;;;;;;;29.10;50.96;100984.41;5045628;28;20509;-77
2023/09/19 10:48:40;;;;;;;19.17;6.65;;;;;;;28.64;51.05;100909.06;5049533;28;20056;-79
2023/09/19 10:51:13;;;;;;;22.08;7.65;;;;;;;29.09;51.52;100990.13;5047090;28;20080;-78
2023/09/19 10:54:00;;;;;;;20.75;8.40;;;;;;;28.71;51.38;100907.81;5028967;28;20052;-77
2023/09/19 10:56:36;;;;;;;23.50;8.13;;;;;;;29.29;50.83;100967.72;5027842;28;20558;-79
2023/09/19 10:59:12;;;;;;;21.70;7.95;;;;;;;28.99;51.16;100892.41;5027318;28;20858;-79
2023/09/19 11:01:52;;;;;;;20.55;7.68;;;;;;;29.46;50.59;100973.97;5018813;28;20057;-78
2023/09/19 11:04:33;;;;;;;11.82;6.78;;;;;;;29.33;50.04;100966.16;5028933;28;20050;-77
2023/09/19 11:07:03;;;;;;;;;;;;;;;29.47;50.89;100972.06;5047023;28;20063;-78
2023/09/19 11:09:47;;;;;;;15.00;7.43;;;;;;;29.50;49.57;100961.47;5039275;28;19924;-81
2023/09/19 11:12:35;;;;;;;23.63;8.70;;;;;;;29.49;49.79;100968.03;5050841;28;20227;-80
2023/09/19 11:15:07;;;;;;;25.33;10.70;;;;;;;29.36;49.43;100908.22;5037025;28;20057;-78
2023/09/19 11:17:44;;;;;;;18.50;6.63;;;;;;;29.72;50.22;100966.13;5037548;28;20061;-78
2023/09/19 11:23:02;;;;;;;21.27;7.82;;;;;;;29.35;49.19;100869.13;5025824;28;20061;-80
2023/09/19 11:28:30;;;;;;;17.77;7.53;;;;;;;29.81;49.51;100948.19;5006906;28;20056;-78
2023/09/19 11:30:58;;;;;;;25.58;8.38;;;;;;;29.73;50.07;100962.31;5023716;28;20056;-78
2023/09/19 11:33:41;;;;;;;15.45;7.93;;;;;;;29.67;50.12;100946.94;5022550;28;20042;-81
2023/09/19 11:36:15;;;;;;;20.90;9.38;;;;;;;29.53;49.73;100949.19;5043782;28;20478;-80
2023/09/19 11:38:45;;;;;;;20.27;7.47;;;;;;;29.70;49.89;100947.22;5046529;28;20044;-78
2023/09/19 11:41:21;;;;;;;22.63;7.35;;;;;;;30.00;49.01;100946.75;5044568;28;20048;-79
2023/09/19 11:44:17;;;;;;;23.02;8.82;;;;;;;29.96;48.73;100937.41;5027377;28;20045;-76